Overview Statistics Trail Chart Weather Telemetry Raw packets
 

This is the latest recevied weather packets stored in our database for station/object K7MT-WX. If no packets are shown the sender has not sent any weather packets the latest 10 day(s).

<< 34 35 36 37 38 39 >>
Time Temp. Humidity Pressure Rain* Wind** Luminosity Snow
1787839109 12.22° C 88% 1019.5 hPa 0 mm - - -
1787838209 11.11° C 90% 1019.3 hPa 0 mm - - -
1787837308 10.56° C 90% 1019.4 hPa 0 mm - - -
1787836408 10.56° C 91% 1019.2 hPa 0 mm - - -
1787835508 10.56° C 88% 1019.3 hPa 0 mm - - -
1787834608 11.11° C 87% 1019.4 hPa 0 mm - - -
1787833708 11.11° C 87% 1019.3 hPa 0 mm - - -
1787832808 11.11° C 88% 1019.4 hPa 0 mm - - -
1787831908 11.67° C 87% 1019.4 hPa 0 mm - - -
1787831008 11.67° C 87% 1019.3 hPa 0 mm - - -
1787830108 12.22° C 87% 1019.3 hPa 0 mm - - -
1787829208 11.67° C 89% 1019.3 hPa 0 mm - - -
1787828308 11.67° C 87% 1019.2 hPa 0 mm - - -
1787827408 12.22° C 85% 1019.1 hPa 0 mm - - -
1787826508 12.78° C 86% 1019 hPa 0 mm - - -
1787825608 12.22° C 85% 1018.9 hPa 0 mm - - -
1787824708 12.22° C 85% 1019 hPa 0 mm - - -
1787823808 12.22° C 84% 1019 hPa 0 mm - - -
1787822908 12.78° C 82% 1018.9 hPa 0 mm - - -
1787822008 13.33° C 83% 1019 hPa 0 mm - - -
1787821108 12.78° C 84% 1019.1 hPa 0 mm - - -
1787820208 12.78° C 82% 1019.3 hPa 0 mm - - -
1787819308 14.44° C 78% 1019.1 hPa 0 mm - - -
1787818408 15° C 77% 1019.1 hPa 0 mm - - -
1787817508 15° C 77% 1019.2 hPa 0 mm - - -

* Rain latest hour (hover to see other rain measurements)
** Current wind speed in m/s (hover to see current wind gust speed)